sensor_id;sensor_type;location;lat;lon;timestamp;P1;durP1;ratioP1;P2;durP2;ratioP2
43883;SDS011;29544;52.018;5.810;2023-04-25T00:02:21;4.97;;;1.33;;
43883;SDS011;29544;52.018;5.810;2023-04-25T00:04:47;3.23;;;1.00;;
43883;SDS011;29544;52.018;5.810;2023-04-25T00:07:13;2.85;;;1.00;;
43883;SDS011;29544;52.018;5.810;2023-04-25T00:09:39;3.83;;;1.50;;
43883;SDS011;29544;52.018;5.810;2023-04-25T00:12:05;4.32;;;1.27;;
43883;SDS011;29544;52.018;5.810;2023-04-25T00:14:31;6.10;;;1.42;;
43883;SDS011;29544;52.018;5.810;2023-04-25T00:16:59;3.72;;;1.25;;
43883;SDS011;29544;52.018;5.810;2023-04-25T00:19:24;3.43;;;1.13;;
43883;SDS011;29544;52.018;5.810;2023-04-25T00:21:51;3.83;;;1.35;;
43883;SDS011;29544;52.018;5.810;2023-04-25T00:24:18;3.05;;;1.38;;
43883;SDS011;29544;52.018;5.810;2023-04-25T00:26:44;4.28;;;1.45;;
43883;SDS011;29544;52.018;5.810;2023-04-25T00:29:09;3.40;;;0.90;;
43883;SDS011;29544;52.018;5.810;2023-04-25T00:31:35;3.10;;;1.40;;
43883;SDS011;29544;52.018;5.810;2023-04-25T00:34:00;5.40;;;1.70;;
43883;SDS011;29544;52.018;5.810;2023-04-25T00:36:26;3.53;;;1.30;;
43883;SDS011;29544;52.018;5.810;2023-04-25T00:38:52;4.50;;;1.17;;
43883;SDS011;29544;52.018;5.810;2023-04-25T00:41:19;3.67;;;1.20;;
43883;SDS011;29544;52.018;5.810;2023-04-25T00:43:45;3.97;;;1.43;;
43883;SDS011;29544;52.018;5.810;2023-04-25T00:46:12;3.45;;;1.10;;
43883;SDS011;29544;52.018;5.810;2023-04-25T00:48:38;5.60;;;1.70;;
43883;SDS011;29544;52.018;5.810;2023-04-25T00:51:03;3.90;;;1.03;;
43883;SDS011;29544;52.018;5.810;2023-04-25T00:53:29;4.27;;;1.40;;
43883;SDS011;29544;52.018;5.810;2023-04-25T00:55:57;3.33;;;1.15;;
43883;SDS011;29544;52.018;5.810;2023-04-25T00:58:23;4.15;;;1.30;;
43883;SDS011;29544;52.018;5.810;2023-04-25T01:00:49;3.67;;;1.30;;
43883;SDS011;29544;52.018;5.810;2023-04-25T01:03:17;3.60;;;1.20;;
43883;SDS011;29544;52.018;5.810;2023-04-25T01:05:45;2.67;;;1.10;;
43883;SDS011;29544;52.018;5.810;2023-04-25T01:08:12;3.92;;;1.52;;
43883;SDS011;29544;52.018;5.810;2023-04-25T01:10:38;4.65;;;1.63;;
43883;SDS011;29544;52.018;5.810;2023-04-25T01:13:03;4.83;;;1.50;;
43883;SDS011;29544;52.018;5.810;2023-04-25T01:15:29;3.10;;;1.33;;
43883;SDS011;29544;52.018;5.810;2023-04-25T01:17:55;4.63;;;1.75;;
43883;SDS011;29544;52.018;5.810;2023-04-25T01:20:22;5.15;;;1.75;;
43883;SDS011;29544;52.018;5.810;2023-04-25T01:22:48;4.25;;;1.23;;
43883;SDS011;29544;52.018;5.810;2023-04-25T01:25:16;3.85;;;1.30;;
43883;SDS011;29544;52.018;5.810;2023-04-25T01:27:42;3.75;;;1.67;;
43883;SDS011;29544;52.018;5.810;2023-04-25T01:30:08;5.00;;;1.48;;
43883;SDS011;29544;52.018;5.810;2023-04-25T01:32:34;5.57;;;1.40;;
43883;SDS011;29544;52.018;5.810;2023-04-25T01:35:07;6.15;;;1.50;;
43883;SDS011;29544;52.018;5.810;2023-04-25T01:37:35;5.22;;;1.65;;
43883;SDS011;29544;52.018;5.810;2023-04-25T01:40:04;3.63;;;1.30;;
43883;SDS011;29544;52.018;5.810;2023-04-25T01:42:31;5.55;;;1.85;;
43883;SDS011;29544;52.018;5.810;2023-04-25T01:47:22;6.72;;;1.70;;
43883;SDS011;29544;52.018;5.810;2023-04-25T01:49:48;3.97;;;1.53;;
43883;SDS011;29544;52.018;5.810;2023-04-25T01:52:14;5.03;;;1.50;;
43883;SDS011;29544;52.018;5.810;2023-04-25T01:54:40;5.27;;;1.40;;
43883;SDS011;29544;52.018;5.810;2023-04-25T01:57:09;2.83;;;1.30;;
43883;SDS011;29544;52.018;5.810;2023-04-25T01:59:35;4.47;;;1.60;;
43883;SDS011;29544;52.018;5.810;2023-04-25T02:02:01;6.10;;;2.08;;
43883;SDS011;29544;52.018;5.810;2023-04-25T02:04:28;5.07;;;2.53;;
43883;SDS011;29544;52.018;5.810;2023-04-25T02:06:57;5.15;;;1.38;;
43883;SDS011;29544;52.018;5.810;2023-04-25T02:09:22;5.23;;;1.53;;
43883;SDS011;29544;52.018;5.810;2023-04-25T02:11:48;3.83;;;1.43;;
43883;SDS011;29544;52.018;5.810;2023-04-25T02:14:14;5.20;;;1.50;;
43883;SDS011;29544;52.018;5.810;2023-04-25T02:16:39;3.37;;;1.40;;
43883;SDS011;29544;52.018;5.810;2023-04-25T02:19:05;5.57;;;1.50;;
43883;SDS011;29544;52.018;5.810;2023-04-25T02:21:31;5.63;;;1.90;;
43883;SDS011;29544;52.018;5.810;2023-04-25T02:23:57;5.65;;;1.65;;
43883;SDS011;29544;52.018;5.810;2023-04-25T02:26:23;5.10;;;2.05;;
43883;SDS011;29544;52.018;5.810;2023-04-25T02:28:49;4.80;;;1.90;;
43883;SDS011;29544;52.018;5.810;2023-04-25T02:31:15;6.55;;;1.83;;
43883;SDS011;29544;52.018;5.810;2023-04-25T02:33:41;8.33;;;1.77;;
43883;SDS011;29544;52.018;5.810;2023-04-25T02:36:06;3.53;;;1.60;;
43883;SDS011;29544;52.018;5.810;2023-04-25T02:38:32;5.93;;;1.83;;
43883;SDS011;29544;52.018;5.810;2023-04-25T02:40:58;7.10;;;1.80;;
43883;SDS011;29544;52.018;5.810;2023-04-25T02:43:23;6.03;;;1.53;;
43883;SDS011;29544;52.018;5.810;2023-04-25T02:45:49;7.10;;;2.00;;
43883;SDS011;29544;52.018;5.810;2023-04-25T02:48:14;4.60;;;1.87;;
43883;SDS011;29544;52.018;5.810;2023-04-25T02:50:40;8.87;;;2.40;;
43883;SDS011;29544;52.018;5.810;2023-04-25T02:53:06;7.23;;;1.93;;
43883;SDS011;29544;52.018;5.810;2023-04-25T02:55:31;3.60;;;1.60;;
43883;SDS011;29544;52.018;5.810;2023-04-25T02:57:57;5.87;;;1.87;;
43883;SDS011;29544;52.018;5.810;2023-04-25T03:00:22;6.20;;;2.10;;
43883;SDS011;29544;52.018;5.810;2023-04-25T03:02:48;6.77;;;1.90;;
43883;SDS011;29544;52.018;5.810;2023-04-25T03:05:13;4.77;;;1.60;;
43883;SDS011;29544;52.018;5.810;2023-04-25T03:07:39;4.13;;;1.67;;
43883;SDS011;29544;52.018;5.810;2023-04-25T03:10:06;5.80;;;1.83;;
43883;SDS011;29544;52.018;5.810;2023-04-25T03:12:32;5.40;;;1.75;;
43883;SDS011;29544;52.018;5.810;2023-04-25T03:14:58;5.13;;;2.07;;
43883;SDS011;29544;52.018;5.810;2023-04-25T03:17:23;6.20;;;1.80;;
43883;SDS011;29544;52.018;5.810;2023-04-25T03:19:49;5.27;;;1.73;;
43883;SDS011;29544;52.018;5.810;2023-04-25T03:22:14;6.27;;;2.00;;
43883;SDS011;29544;52.018;5.810;2023-04-25T03:24:40;6.27;;;2.20;;
43883;SDS011;29544;52.018;5.810;2023-04-25T03:27:05;4.80;;;1.50;;
43883;SDS011;29544;52.018;5.810;2023-04-25T03:29:31;5.90;;;1.83;;
43883;SDS011;29544;52.018;5.810;2023-04-25T03:31:56;5.17;;;1.70;;
43883;SDS011;29544;52.018;5.810;2023-04-25T03:34:22;5.23;;;1.70;;
43883;SDS011;29544;52.018;5.810;2023-04-25T03:36:48;5.65;;;1.90;;
43883;SDS011;29544;52.018;5.810;2023-04-25T03:39:14;5.60;;;1.70;;
43883;SDS011;29544;52.018;5.810;2023-04-25T03:41:40;5.97;;;1.90;;
43883;SDS011;29544;52.018;5.810;2023-04-25T03:44:06;5.80;;;1.70;;
43883;SDS011;29544;52.018;5.810;2023-04-25T03:46:31;4.60;;;1.67;;
43883;SDS011;29544;52.018;5.810;2023-04-25T03:48:57;5.77;;;1.80;;
43883;SDS011;29544;52.018;5.810;2023-04-25T03:51:24;5.55;;;2.05;;
43883;SDS011;29544;52.018;5.810;2023-04-25T03:53:50;5.90;;;1.40;;
43883;SDS011;29544;52.018;5.810;2023-04-25T03:56:16;5.68;;;1.83;;
43883;SDS011;29544;52.018;5.810;2023-04-25T03:58:42;5.17;;;1.77;;
43883;SDS011;29544;52.018;5.810;2023-04-25T04:01:07;5.13;;;2.00;;
43883;SDS011;29544;52.018;5.810;2023-04-25T04:03:33;8.23;;;2.20;;
43883;SDS011;29544;52.018;5.810;2023-04-25T04:06:00;6.63;;;1.92;;
43883;SDS011;29544;52.018;5.810;2023-04-25T04:08:27;4.30;;;1.65;;
43883;SDS011;29544;52.018;5.810;2023-04-25T04:10:53;5.30;;;1.57;;
43883;SDS011;29544;52.018;5.810;2023-04-25T04:13:18;5.17;;;1.77;;
43883;SDS011;29544;52.018;5.810;2023-04-25T04:15:44;4.63;;;1.90;;
43883;SDS011;29544;52.018;5.810;2023-04-25T04:18:09;8.93;;;1.70;;
43883;SDS011;29544;52.018;5.810;2023-04-25T04:20:35;4.75;;;1.73;;
43883;SDS011;29544;52.018;5.810;2023-04-25T04:23:01;6.60;;;1.77;;
43883;SDS011;29544;52.018;5.810;2023-04-25T04:25:26;6.03;;;2.07;;
43883;SDS011;29544;52.018;5.810;2023-04-25T04:27:52;8.17;;;2.07;;
43883;SDS011;29544;52.018;5.810;2023-04-25T04:30:19;6.95;;;1.83;;
43883;SDS011;29544;52.018;5.810;2023-04-25T04:32:49;4.80;;;2.00;;
43883;SDS011;29544;52.018;5.810;2023-04-25T04:35:15;4.88;;;1.77;;
43883;SDS011;29544;52.018;5.810;2023-04-25T04:37:40;5.07;;;1.70;;
43883;SDS011;29544;52.018;5.810;2023-04-25T04:40:07;5.50;;;1.73;;
43883;SDS011;29544;52.018;5.810;2023-04-25T04:42:33;3.63;;;1.60;;
43883;SDS011;29544;52.018;5.810;2023-04-25T04:45:01;5.95;;;1.40;;
43883;SDS011;29544;52.018;5.810;2023-04-25T04:47:27;3.80;;;1.85;;
43883;SDS011;29544;52.018;5.810;2023-04-25T04:49:57;6.47;;;1.90;;
43883;SDS011;29544;52.018;5.810;2023-04-25T04:52:22;5.97;;;1.70;;
43883;SDS011;29544;52.018;5.810;2023-04-25T04:54:48;6.00;;;1.50;;
43883;SDS011;29544;52.018;5.810;2023-04-25T04:57:13;5.23;;;1.80;;
43883;SDS011;29544;52.018;5.810;2023-04-25T04:59:39;4.40;;;1.80;;
43883;SDS011;29544;52.018;5.810;2023-04-25T05:02:04;4.97;;;2.13;;
43883;SDS011;29544;52.018;5.810;2023-04-25T05:04:30;4.83;;;1.70;;
43883;SDS011;29544;52.018;5.810;2023-04-25T05:06:55;4.43;;;1.93;;
43883;SDS011;29544;52.018;5.810;2023-04-25T05:09:21;4.33;;;1.53;;
43883;SDS011;29544;52.018;5.810;2023-04-25T05:11:50;2.90;;;1.20;;
43883;SDS011;29544;52.018;5.810;2023-04-25T05:14:16;5.03;;;1.63;;
43883;SDS011;29544;52.018;5.810;2023-04-25T05:16:42;4.05;;;1.75;;
43883;SDS011;29544;52.018;5.810;2023-04-25T05:19:08;5.93;;;2.28;;
43883;SDS011;29544;52.018;5.810;2023-04-25T05:21:34;4.90;;;1.80;;
43883;SDS011;29544;52.018;5.810;2023-04-25T05:23:59;5.80;;;1.93;;
43883;SDS011;29544;52.018;5.810;2023-04-25T05:26:25;5.23;;;2.13;;
43883;SDS011;29544;52.018;5.810;2023-04-25T05:28:51;4.13;;;1.47;;
43883;SDS011;29544;52.018;5.810;2023-04-25T05:31:16;5.67;;;1.30;;
43883;SDS011;29544;52.018;5.810;2023-04-25T05:33:42;4.73;;;1.67;;
43883;SDS011;29544;52.018;5.810;2023-04-25T05:36:08;7.13;;;2.33;;
43883;SDS011;29544;52.018;5.810;2023-04-25T05:38:33;6.13;;;1.87;;
43883;SDS011;29544;52.018;5.810;2023-04-25T05:40:59;4.00;;;1.53;;
43883;SDS011;29544;52.018;5.810;2023-04-25T05:43:24;3.50;;;1.50;;
43883;SDS011;29544;52.018;5.810;2023-04-25T05:45:50;3.60;;;1.70;;
43883;SDS011;29544;52.018;5.810;2023-04-25T05:48:16;4.70;;;2.03;;
43883;SDS011;29544;52.018;5.810;2023-04-25T05:50:41;6.17;;;1.77;;
43883;SDS011;29544;52.018;5.810;2023-04-25T05:53:06;6.63;;;2.10;;
43883;SDS011;29544;52.018;5.810;2023-04-25T05:55:32;5.00;;;1.33;;
43883;SDS011;29544;52.018;5.810;2023-04-25T05:57:57;5.20;;;1.50;;
43883;SDS011;29544;52.018;5.810;2023-04-25T06:00:23;5.33;;;1.57;;
43883;SDS011;29544;52.018;5.810;2023-04-25T06:02:49;4.87;;;1.60;;
43883;SDS011;29544;52.018;5.810;2023-04-25T06:05:14;6.60;;;1.57;;
43883;SDS011;29544;52.018;5.810;2023-04-25T06:07:40;4.73;;;1.53;;
43883;SDS011;29544;52.018;5.810;2023-04-25T06:10:05;5.13;;;1.80;;
43883;SDS011;29544;52.018;5.810;2023-04-25T06:12:32;4.95;;;1.65;;
43883;SDS011;29544;52.018;5.810;2023-04-25T06:14:58;4.95;;;1.98;;
43883;SDS011;29544;52.018;5.810;2023-04-25T06:17:24;4.80;;;1.42;;
43883;SDS011;29544;52.018;5.810;2023-04-25T06:19:49;4.83;;;1.63;;
43883;SDS011;29544;52.018;5.810;2023-04-25T06:22:15;6.13;;;1.87;;
43883;SDS011;29544;52.018;5.810;2023-04-25T06:24:41;5.20;;;1.70;;
43883;SDS011;29544;52.018;5.810;2023-04-25T06:27:06;8.03;;;2.10;;
43883;SDS011;29544;52.018;5.810;2023-04-25T06:29:32;5.53;;;1.67;;
43883;SDS011;29544;52.018;5.810;2023-04-25T06:31:57;6.33;;;1.70;;
43883;SDS011;29544;52.018;5.810;2023-04-25T06:34:23;5.17;;;1.80;;
43883;SDS011;29544;52.018;5.810;2023-04-25T06:36:49;7.00;;;1.90;;
43883;SDS011;29544;52.018;5.810;2023-04-25T06:39:14;7.70;;;1.57;;
43883;SDS011;29544;52.018;5.810;2023-04-25T06:41:40;3.70;;;1.50;;
43883;SDS011;29544;52.018;5.810;2023-04-25T06:44:05;6.03;;;1.90;;
43883;SDS011;29544;52.018;5.810;2023-04-25T06:46:31;6.30;;;1.90;;
43883;SDS011;29544;52.018;5.810;2023-04-25T06:48:57;4.13;;;1.73;;
43883;SDS011;29544;52.018;5.810;2023-04-25T06:51:22;4.33;;;1.53;;
43883;SDS011;29544;52.018;5.810;2023-04-25T06:53:49;4.95;;;1.73;;
43883;SDS011;29544;52.018;5.810;2023-04-25T06:56:14;6.37;;;1.80;;
43883;SDS011;29544;52.018;5.810;2023-04-25T06:58:41;6.43;;;2.13;;
43883;SDS011;29544;52.018;5.810;2023-04-25T07:01:06;4.47;;;1.63;;
43883;SDS011;29544;52.018;5.810;2023-04-25T07:03:32;5.13;;;1.57;;
43883;SDS011;29544;52.018;5.810;2023-04-25T07:05:57;3.87;;;1.40;;
43883;SDS011;29544;52.018;5.810;2023-04-25T07:08:23;4.03;;;1.63;;
43883;SDS011;29544;52.018;5.810;2023-04-25T07:10:48;5.43;;;2.00;;
43883;SDS011;29544;52.018;5.810;2023-04-25T07:13:14;3.93;;;1.47;;
43883;SDS011;29544;52.018;5.810;2023-04-25T07:15:39;8.03;;;1.73;;
43883;SDS011;29544;52.018;5.810;2023-04-25T07:18:05;2.77;;;1.20;;
43883;SDS011;29544;52.018;5.810;2023-04-25T07:20:31;5.37;;;1.73;;
43883;SDS011;29544;52.018;5.810;2023-04-25T07:22:57;3.75;;;1.60;;
43883;SDS011;29544;52.018;5.810;2023-04-25T07:25:23;8.23;;;1.70;;
43883;SDS011;29544;52.018;5.810;2023-04-25T07:27:48;7.43;;;1.90;;
43883;SDS011;29544;52.018;5.810;2023-04-25T07:30:14;4.73;;;1.73;;
43883;SDS011;29544;52.018;5.810;2023-04-25T07:32:40;6.07;;;2.10;;
43883;SDS011;29544;52.018;5.810;2023-04-25T07:35:05;4.83;;;1.40;;
43883;SDS011;29544;52.018;5.810;2023-04-25T07:37:32;6.25;;;1.65;;
43883;SDS011;29544;52.018;5.810;2023-04-25T07:39:58;3.13;;;1.20;;
43883;SDS011;29544;52.018;5.810;2023-04-25T07:42:24;6.90;;;2.20;;
43883;SDS011;29544;52.018;5.810;2023-04-25T07:44:49;3.27;;;1.17;;
43883;SDS011;29544;52.018;5.810;2023-04-25T07:47:16;4.40;;;1.38;;
43883;SDS011;29544;52.018;5.810;2023-04-25T07:49:43;6.18;;;1.50;;
43883;SDS011;29544;52.018;5.810;2023-04-25T07:52:10;5.10;;;1.80;;
43883;SDS011;29544;52.018;5.810;2023-04-25T07:54:35;6.07;;;2.00;;
43883;SDS011;29544;52.018;5.810;2023-04-25T07:57:01;6.63;;;1.70;;
43883;SDS011;29544;52.018;5.810;2023-04-25T07:59:27;6.32;;;1.55;;
43883;SDS011;29544;52.018;5.810;2023-04-25T08:01:53;4.77;;;1.40;;
43883;SDS011;29544;52.018;5.810;2023-04-25T08:04:18;6.10;;;1.63;;
43883;SDS011;29544;52.018;5.810;2023-04-25T08:06:44;4.83;;;1.43;;
43883;SDS011;29544;52.018;5.810;2023-04-25T08:09:10;3.42;;;1.40;;
43883;SDS011;29544;52.018;5.810;2023-04-25T08:11:36;4.80;;;1.43;;
43883;SDS011;29544;52.018;5.810;2023-04-25T08:14:02;3.42;;;1.50;;
43883;SDS011;29544;52.018;5.810;2023-04-25T08:16:27;2.47;;;1.20;;
43883;SDS011;29544;52.018;5.810;2023-04-25T08:18:53;4.73;;;1.87;;
43883;SDS011;29544;52.018;5.810;2023-04-25T08:21:19;5.07;;;1.50;;
43883;SDS011;29544;52.018;5.810;2023-04-25T08:23:45;4.63;;;1.50;;
43883;SDS011;29544;52.018;5.810;2023-04-25T08:26:11;3.47;;;1.30;;
43883;SDS011;29544;52.018;5.810;2023-04-25T08:28:36;4.70;;;1.60;;
43883;SDS011;29544;52.018;5.810;2023-04-25T08:31:02;6.60;;;1.87;;
43883;SDS011;29544;52.018;5.810;2023-04-25T08:33:28;5.47;;;1.50;;
43883;SDS011;29544;52.018;5.810;2023-04-25T08:38:20;6.35;;;1.50;;
43883;SDS011;29544;52.018;5.810;2023-04-25T08:40:46;5.30;;;2.05;;
43883;SDS011;29544;52.018;5.810;2023-04-25T08:43:15;11.88;;;2.22;;
43883;SDS011;29544;52.018;5.810;2023-04-25T08:45:43;16.95;;;2.45;;
43883;SDS011;29544;52.018;5.810;2023-04-25T08:48:13;9.85;;;1.60;;
43883;SDS011;29544;52.018;5.810;2023-04-25T08:50:50;14.35;;;1.98;;
43883;SDS011;29544;52.018;5.810;2023-04-25T08:53:18;5.13;;;1.65;;
43883;SDS011;29544;52.018;5.810;2023-04-25T08:55:50;12.07;;;1.75;;
43883;SDS011;29544;52.018;5.810;2023-04-25T08:58:18;8.90;;;1.77;;
43883;SDS011;29544;52.018;5.810;2023-04-25T09:00:45;8.00;;;1.60;;
43883;SDS011;29544;52.018;5.810;2023-04-25T09:03:11;9.02;;;1.60;;
43883;SDS011;29544;52.018;5.810;2023-04-25T09:05:38;10.40;;;2.13;;
43883;SDS011;29544;52.018;5.810;2023-04-25T09:08:05;7.97;;;1.35;;
43883;SDS011;29544;52.018;5.810;2023-04-25T09:10:31;5.47;;;1.40;;
43883;SDS011;29544;52.018;5.810;2023-04-25T09:13:04;7.38;;;1.85;;
43883;SDS011;29544;52.018;5.810;2023-04-25T09:15:49;5.07;;;1.33;;
43883;SDS011;29544;52.018;5.810;2023-04-25T09:20:50;7.18;;;1.80;;
43883;SDS011;29544;52.018;5.810;2023-04-25T09:23:18;6.28;;;1.60;;
43883;SDS011;29544;52.018;5.810;2023-04-25T09:25:46;11.10;;;1.60;;
43883;SDS011;29544;52.018;5.810;2023-04-25T09:28:16;5.13;;;1.50;;
43883;SDS011;29544;52.018;5.810;2023-04-25T09:30:47;11.77;;;1.70;;
43883;SDS011;29544;52.018;5.810;2023-04-25T09:33:13;4.77;;;1.40;;
43883;SDS011;29544;52.018;5.810;2023-04-25T09:35:44;5.13;;;1.43;;
43883;SDS011;29544;52.018;5.810;2023-04-25T09:38:14;8.95;;;1.88;;
43883;SDS011;29544;52.018;5.810;2023-04-25T09:40:44;4.72;;;1.45;;
43883;SDS011;29544;52.018;5.810;2023-04-25T09:43:18;5.00;;;1.48;;
43883;SDS011;29544;52.018;5.810;2023-04-25T09:45:47;5.18;;;1.30;;
43883;SDS011;29544;52.018;5.810;2023-04-25T09:48:19;3.90;;;1.60;;
43883;SDS011;29544;52.018;5.810;2023-04-25T09:51:03;4.10;;;1.13;;
43883;SDS011;29544;52.018;5.810;2023-04-25T09:53:33;4.25;;;1.00;;
43883;SDS011;29544;52.018;5.810;2023-04-25T09:56:00;3.78;;;1.33;;
43883;SDS011;29544;52.018;5.810;2023-04-25T09:58:29;7.68;;;1.88;;
43883;SDS011;29544;52.018;5.810;2023-04-25T10:00:56;4.35;;;1.42;;
43883;SDS011;29544;52.018;5.810;2023-04-25T10:03:25;4.43;;;1.08;;
43883;SDS011;29544;52.018;5.810;2023-04-25T10:05:51;5.18;;;1.30;;
43883;SDS011;29544;52.018;5.810;2023-04-25T10:08:18;3.58;;;1.10;;
43883;SDS011;29544;52.018;5.810;2023-04-25T10:10:44;4.80;;;1.17;;
43883;SDS011;29544;52.018;5.810;2023-04-25T10:13:11;6.38;;;1.30;;
43883;SDS011;29544;52.018;5.810;2023-04-25T10:15:39;4.97;;;1.35;;
43883;SDS011;29544;52.018;5.810;2023-04-25T10:18:06;2.30;;;1.10;;
43883;SDS011;29544;52.018;5.810;2023-04-25T10:20:32;4.13;;;1.00;;
43883;SDS011;29544;52.018;5.810;2023-04-25T10:22:58;4.95;;;1.20;;
43883;SDS011;29544;52.018;5.810;2023-04-25T10:25:37;2.30;;;0.93;;
43883;SDS011;29544;52.018;5.810;2023-04-25T10:28:04;3.08;;;1.10;;
43883;SDS011;29544;52.018;5.810;2023-04-25T10:30:30;3.78;;;1.38;;
43883;SDS011;29544;52.018;5.810;2023-04-25T10:32:55;3.27;;;1.20;;
43883;SDS011;29544;52.018;5.810;2023-04-25T10:35:25;5.57;;;1.27;;
43883;SDS011;29544;52.018;5.810;2023-04-25T10:40:37;4.10;;;0.80;;
43883;SDS011;29544;52.018;5.810;2023-04-25T10:45:56;3.75;;;1.10;;
43883;SDS011;29544;52.018;5.810;2023-04-25T10:48:25;3.77;;;1.00;;
43883;SDS011;29544;52.018;5.810;2023-04-25T10:51:10;4.68;;;1.10;;
43883;SDS011;29544;52.018;5.810;2023-04-25T10:53:36;2.13;;;0.75;;
43883;SDS011;29544;52.018;5.810;2023-04-25T10:56:12;3.17;;;1.37;;
43883;SDS011;29544;52.018;5.810;2023-04-25T10:58:43;5.45;;;0.90;;
43883;SDS011;29544;52.018;5.810;2023-04-25T11:01:09;3.33;;;1.00;;
43883;SDS011;29544;52.018;5.810;2023-04-25T11:03:41;4.50;;;1.00;;
43883;SDS011;29544;52.018;5.810;2023-04-25T11:06:12;3.92;;;1.05;;
43883;SDS011;29544;52.018;5.810;2023-04-25T11:09:00;5.78;;;1.15;;
43883;SDS011;29544;52.018;5.810;2023-04-25T11:11:26;2.88;;;1.35;;
43883;SDS011;29544;52.018;5.810;2023-04-25T11:13:53;3.03;;;0.70;;
43883;SDS011;29544;52.018;5.810;2023-04-25T11:16:19;1.87;;;0.90;;
43883;SDS011;29544;52.018;5.810;2023-04-25T11:18:48;2.70;;;0.80;;
43883;SDS011;29544;52.018;5.810;2023-04-25T11:21:14;4.23;;;1.07;;
43883;SDS011;29544;52.018;5.810;2023-04-25T11:23:39;3.07;;;0.90;;
43883;SDS011;29544;52.018;5.810;2023-04-25T11:26:05;2.23;;;0.83;;
43883;SDS011;29544;52.018;5.810;2023-04-25T11:28:31;2.97;;;1.30;;
43883;SDS011;29544;52.018;5.810;2023-04-25T11:30:56;6.13;;;1.63;;
43883;SDS011;29544;52.018;5.810;2023-04-25T11:33:25;2.37;;;0.97;;
43883;SDS011;29544;52.018;5.810;2023-04-25T11:35:55;4.00;;;1.25;;
43883;SDS011;29544;52.018;5.810;2023-04-25T11:38:24;1.83;;;0.90;;
43883;SDS011;29544;52.018;5.810;2023-04-25T11:40:53;3.13;;;1.00;;
43883;SDS011;29544;52.018;5.810;2023-04-25T11:43:20;2.50;;;0.90;;
43883;SDS011;29544;52.018;5.810;2023-04-25T11:45:47;5.40;;;1.15;;
43883;SDS011;29544;52.018;5.810;2023-04-25T11:48:13;3.42;;;1.10;;
43883;SDS011;29544;52.018;5.810;2023-04-25T11:50:39;3.07;;;1.10;;
43883;SDS011;29544;52.018;5.810;2023-04-25T11:53:05;2.63;;;1.20;;
43883;SDS011;29544;52.018;5.810;2023-04-25T11:55:31;2.60;;;0.90;;
43883;SDS011;29544;52.018;5.810;2023-04-25T11:57:59;2.53;;;0.90;;
43883;SDS011;29544;52.018;5.810;2023-04-25T12:00:25;2.47;;;0.80;;
43883;SDS011;29544;52.018;5.810;2023-04-25T12:02:52;2.33;;;1.08;;
43883;SDS011;29544;52.018;5.810;2023-04-25T12:05:19;3.00;;;1.10;;
43883;SDS011;29544;52.018;5.810;2023-04-25T12:07:45;2.42;;;0.63;;
43883;SDS011;29544;52.018;5.810;2023-04-25T12:10:12;2.47;;;0.95;;
43883;SDS011;29544;52.018;5.810;2023-04-25T12:12:43;2.88;;;0.85;;
43883;SDS011;29544;52.018;5.810;2023-04-25T12:17:48;3.85;;;1.23;;
43883;SDS011;29544;52.018;5.810;2023-04-25T12:20:16;3.13;;;1.00;;
43883;SDS011;29544;52.018;5.810;2023-04-25T12:22:46;1.45;;;0.90;;
43883;SDS011;29544;52.018;5.810;2023-04-25T12:25:17;1.92;;;0.70;;
43883;SDS011;29544;52.018;5.810;2023-04-25T12:28:13;2.40;;;0.80;;
43883;SDS011;29544;52.018;5.810;2023-04-25T12:30:56;2.20;;;0.95;;
43883;SDS011;29544;52.018;5.810;2023-04-25T12:33:33;1.98;;;0.68;;
43883;SDS011;29544;52.018;5.810;2023-04-25T12:36:00;2.83;;;1.10;;
43883;SDS011;29544;52.018;5.810;2023-04-25T12:38:39;1.65;;;0.73;;
43883;SDS011;29544;52.018;5.810;2023-04-25T12:41:06;1.92;;;0.60;;
43883;SDS011;29544;52.018;5.810;2023-04-25T12:43:32;2.75;;;0.80;;
43883;SDS011;29544;52.018;5.810;2023-04-25T12:45:57;2.47;;;0.70;;
43883;SDS011;29544;52.018;5.810;2023-04-25T12:48:23;2.30;;;0.67;;
43883;SDS011;29544;52.018;5.810;2023-04-25T12:50:49;4.15;;;0.98;;
43883;SDS011;29544;52.018;5.810;2023-04-25T12:53:17;1.30;;;0.47;;
43883;SDS011;29544;52.018;5.810;2023-04-25T12:55:43;2.75;;;0.65;;
43883;SDS011;29544;52.018;5.810;2023-04-25T12:58:13;4.22;;;1.20;;
43883;SDS011;29544;52.018;5.810;2023-04-25T13:00:38;3.08;;;1.08;;
43883;SDS011;29544;52.018;5.810;2023-04-25T13:03:04;3.87;;;1.10;;
43883;SDS011;29544;52.018;5.810;2023-04-25T13:05:30;2.57;;;0.70;;
43883;SDS011;29544;52.018;5.810;2023-04-25T13:07:55;2.63;;;0.80;;
43883;SDS011;29544;52.018;5.810;2023-04-25T13:10:21;2.63;;;0.90;;
43883;SDS011;29544;52.018;5.810;2023-04-25T13:12:47;4.40;;;1.53;;
43883;SDS011;29544;52.018;5.810;2023-04-25T13:15:12;1.73;;;0.80;;
43883;SDS011;29544;52.018;5.810;2023-04-25T13:17:40;2.65;;;1.00;;
43883;SDS011;29544;52.018;5.810;2023-04-25T13:20:06;2.95;;;0.80;;
43883;SDS011;29544;52.018;5.810;2023-04-25T13:22:34;2.40;;;1.02;;
43883;SDS011;29544;52.018;5.810;2023-04-25T13:25:03;3.67;;;1.10;;
43883;SDS011;29544;52.018;5.810;2023-04-25T13:27:31;1.63;;;0.70;;
43883;SDS011;29544;52.018;5.810;2023-04-25T13:29:58;2.15;;;0.40;;
43883;SDS011;29544;52.018;5.810;2023-04-25T13:32:25;2.83;;;0.93;;
43883;SDS011;29544;52.018;5.810;2023-04-25T13:34:51;1.00;;;0.50;;
43883;SDS011;29544;52.018;5.810;2023-04-25T13:37:16;1.95;;;0.85;;
43883;SDS011;29544;52.018;5.810;2023-04-25T13:39:42;2.47;;;0.70;;
43883;SDS011;29544;52.018;5.810;2023-04-25T13:42:07;2.40;;;0.77;;
43883;SDS011;29544;52.018;5.810;2023-04-25T13:44:33;1.63;;;0.67;;
43883;SDS011;29544;52.018;5.810;2023-04-25T13:46:58;3.43;;;0.90;;
43883;SDS011;29544;52.018;5.810;2023-04-25T13:49:25;2.55;;;0.70;;
43883;SDS011;29544;52.018;5.810;2023-04-25T13:51:51;2.57;;;0.70;;
43883;SDS011;29544;52.018;5.810;2023-04-25T13:54:16;2.43;;;0.90;;
43883;SDS011;29544;52.018;5.810;2023-04-25T13:56:42;4.03;;;1.00;;
43883;SDS011;29544;52.018;5.810;2023-04-25T13:59:07;2.43;;;1.03;;
43883;SDS011;29544;52.018;5.810;2023-04-25T14:01:33;4.40;;;1.05;;
43883;SDS011;29544;52.018;5.810;2023-04-25T14:04:00;2.90;;;1.00;;
43883;SDS011;29544;52.018;5.810;2023-04-25T14:06:29;6.40;;;1.10;;
43883;SDS011;29544;52.018;5.810;2023-04-25T14:08:56;3.22;;;0.85;;
43883;SDS011;29544;52.018;5.810;2023-04-25T14:11:22;2.37;;;0.70;;
43883;SDS011;29544;52.018;5.810;2023-04-25T14:13:47;2.80;;;0.90;;
43883;SDS011;29544;52.018;5.810;2023-04-25T14:18:40;4.00;;;1.27;;
43883;SDS011;29544;52.018;5.810;2023-04-25T14:21:06;5.63;;;1.00;;
43883;SDS011;29544;52.018;5.810;2023-04-25T14:23:31;1.40;;;0.67;;
43883;SDS011;29544;52.018;5.810;2023-04-25T14:25:57;4.03;;;1.00;;
43883;SDS011;29544;52.018;5.810;2023-04-25T14:28:22;2.60;;;0.80;;
43883;SDS011;29544;52.018;5.810;2023-04-25T14:30:48;3.97;;;1.10;;
43883;SDS011;29544;52.018;5.810;2023-04-25T14:33:13;2.17;;;0.83;;
43883;SDS011;29544;52.018;5.810;2023-04-25T14:35:39;2.27;;;0.80;;
43883;SDS011;29544;52.018;5.810;2023-04-25T14:38:05;2.33;;;0.97;;
43883;SDS011;29544;52.018;5.810;2023-04-25T14:40:30;3.95;;;0.90;;
43883;SDS011;29544;52.018;5.810;2023-04-25T14:42:56;1.90;;;0.70;;
43883;SDS011;29544;52.018;5.810;2023-04-25T14:45:21;2.17;;;0.80;;
43883;SDS011;29544;52.018;5.810;2023-04-25T14:47:47;3.77;;;1.20;;
43883;SDS011;29544;52.018;5.810;2023-04-25T14:50:12;3.10;;;0.87;;
43883;SDS011;29544;52.018;5.810;2023-04-25T14:52:38;3.07;;;0.93;;
43883;SDS011;29544;52.018;5.810;2023-04-25T14:55:03;1.40;;;0.60;;
43883;SDS011;29544;52.018;5.810;2023-04-25T14:57:32;2.55;;;1.00;;
43883;SDS011;29544;52.018;5.810;2023-04-25T14:59:59;2.00;;;0.80;;
43883;SDS011;29544;52.018;5.810;2023-04-25T15:02:25;3.63;;;1.10;;
43883;SDS011;29544;52.018;5.810;2023-04-25T15:04:51;2.85;;;0.90;;